Time;durP1;ratioP1;P1;durP2;ratioP2;P2;SDS_P1;SDS_P2;PMS_P1;PMS_P2;Temp;Humidity;BMP_temperature;BMP_pressure;BME280_temperature;BME280_humidity;BME280_pressure;Samples;Min_cycle;Max_cycle;Signal;HPM_P1;HPM_P2
2023/04/15 00:01:28;;;;;;;10.00;4.68;;;;;;;;;;5050184;28;20059;-70
2023/04/15 00:03:56;;;;;;;8.18;3.97;;;;;;;;;;5048207;28;20446;-70
2023/04/15 00:06:22;;;;;;;8.13;4.50;;;;;;;;;;5047160;28;20125;-70
2023/04/15 00:08:51;;;;;;;8.85;5.78;;;;;;;;;;5032959;28;20041;-70
2023/04/15 00:11:18;;;;;;;8.52;5.13;;;;;;;;;;5028882;28;20061;-70
2023/04/15 00:13:45;;;;;;;13.25;5.47;;;;;;;;;;5033324;28;20045;-70
2023/04/15 00:16:12;;;;;;;10.85;4.32;;;;;;;;;;5044466;28;20146;-70
2023/04/15 00:18:38;;;;;;;9.80;4.97;;;;;;;;;;5049256;28;20040;-70
2023/04/15 00:21:04;;;;;;;10.57;4.80;;;;;;;;;;5033870;28;20064;-70
2023/04/15 00:23:31;;;;;;;10.73;4.97;;;;;;;;;;5050956;28;20033;-70
2023/04/15 00:25:57;;;;;;;8.18;4.50;;;;;;;;;;5029914;28;20037;-70
2023/04/15 00:28:23;;;;;;;10.05;4.38;;;;;;;;;;5038268;28;20034;-70
2023/04/15 00:30:50;;;;;;;12.25;4.93;;;;;;;;;;5046018;28;20356;-70
2023/04/15 00:33:16;;;;;;;8.63;4.30;;;;;;;;;;5051782;28;20090;-70
2023/04/15 00:35:42;;;;;;;9.30;5.80;;;;;;;;;;5045603;28;20037;-70
2023/04/15 00:38:08;;;;;;;14.05;5.53;;;;;;;;;;5048751;28;20049;-70
2023/04/15 00:40:35;;;;;;;9.48;5.30;;;;;;;;;;5050416;28;20143;-70
2023/04/15 00:43:01;;;;;;;10.15;5.35;;;;;;;;;;5049748;28;20036;-70
2023/04/15 00:45:27;;;;;;;7.35;5.05;;;;;;;;;;5048337;28;20056;-70
2023/04/15 00:47:53;;;;;;;12.32;5.97;;;;;;;;;;5047608;28;20498;-70
2023/04/15 00:50:20;;;;;;;11.25;6.00;;;;;;;;;;5046896;28;20052;-71
2023/04/15 00:52:46;;;;;;;7.32;5.05;;;;;;;;;;5051729;28;20041;-70
2023/04/15 00:55:12;;;;;;;8.45;5.63;;;;;;;;;;5048548;28;20041;-70
2023/04/15 00:57:39;;;;;;;7.80;5.75;;;;;;;;;;5049045;28;20124;-70
2023/04/15 01:00:06;;;;;;;12.02;5.63;;;;;;;;;;5048672;28;20119;-69
2023/04/15 01:02:33;;;;;;;8.00;5.45;;;;;;;;;;5048191;28;20040;-69
2023/04/15 01:05:00;;;;;;;10.32;6.30;;;;;;;;;;5051156;28;20037;-70
2023/04/15 01:07:27;;;;;;;10.75;6.78;;;;;;;;;;5025045;28;20079;-70
2023/04/15 01:09:53;;;;;;;9.30;5.63;;;;;;;;;;5034790;28;20059;-70
2023/04/15 01:12:20;;;;;;;9.32;6.10;;;;;;;;;;5033148;28;20068;-70
2023/04/15 01:14:46;;;;;;;10.85;5.93;;;;;;;;;;5028573;28;20052;-70
2023/04/15 01:17:12;;;;;;;10.40;6.43;;;;;;;;;;5029890;28;20639;-70
2023/04/15 01:19:39;;;;;;;10.65;7.47;;;;;;;;;;5048320;28;20064;-71
2023/04/15 01:22:05;;;;;;;9.68;5.80;;;;;;;;;;5030521;28;20044;-70
2023/04/15 01:24:32;;;;;;;15.55;7.57;;;;;;;;;;5049145;28;20051;-70
2023/04/15 01:26:59;;;;;;;13.57;6.72;;;;;;;;;;5051441;28;20033;-70
2023/04/15 01:29:26;;;;;;;12.10;6.65;;;;;;;;;;5052377;28;20036;-71
2023/04/15 01:31:52;;;;;;;11.57;7.32;;;;;;;;;;5029152;28;20174;-70
2023/04/15 01:34:18;;;;;;;10.02;5.82;;;;;;;;;;5050618;28;20044;-71
2023/04/15 01:36:45;;;;;;;9.10;6.75;;;;;;;;;;5048977;28;20033;-70
2023/04/15 01:39:11;;;;;;;13.23;5.97;;;;;;;;;;5055275;28;20037;-71
2023/04/15 01:41:37;;;;;;;14.00;7.78;;;;;;;;;;5055483;28;20494;-71
2023/04/15 01:44:03;;;;;;;16.42;8.13;;;;;;;;;;5050663;28;20112;-70
2023/04/15 01:46:30;;;;;;;11.90;6.75;;;;;;;;;;5019208;28;20041;-70
2023/04/15 01:48:56;;;;;;;13.88;7.45;;;;;;;;;;5051134;28;20040;-70
2023/04/15 01:51:22;;;;;;;12.93;7.97;;;;;;;;;;5033333;28;20093;-70
2023/04/15 01:53:48;;;;;;;13.30;7.15;;;;;;;;;;5051347;28;20267;-70
2023/04/15 01:56:15;;;;;;;11.57;7.13;;;;;;;;;;5050870;28;20041;-70
2023/04/15 01:58:41;;;;;;;8.35;6.80;;;;;;;;;;5046907;28;20041;-71
2023/04/15 02:01:09;;;;;;;11.15;7.65;;;;;;;;;;5051935;28;20045;-70
2023/04/15 02:03:36;;;;;;;12.82;7.75;;;;;;;;;;5031968;28;20071;-71
2023/04/15 02:06:03;;;;;;;13.10;8.10;;;;;;;;;;5041128;28;20483;-70
2023/04/15 02:08:29;;;;;;;11.93;8.02;;;;;;;;;;5055002;28;20086;-70
2023/04/15 02:10:55;;;;;;;10.65;6.43;;;;;;;;;;5047708;28;20084;-71
2023/04/15 02:13:22;;;;;;;10.77;8.13;;;;;;;;;;5050569;28;20056;-70
2023/04/15 02:15:48;;;;;;;11.10;7.40;;;;;;;;;;5051133;28;20037;-70
2023/04/15 02:18:15;;;;;;;9.98;7.10;;;;;;;;;;5048870;28;20039;-70
2023/04/15 02:20:45;;;;;;;11.85;7.63;;;;;;;;;;5048468;28;20102;-69
2023/04/15 02:23:12;;;;;;;11.32;7.55;;;;;;;;;;5053124;28;20055;-70
2023/04/15 02:25:38;;;;;;;12.35;8.00;;;;;;;;;;5045159;28;20080;-70
2023/04/15 02:28:05;;;;;;;13.65;7.68;;;;;;;;;;5048029;28;20033;-70
2023/04/15 02:30:32;;;;;;;14.25;8.38;;;;;;;;;;5049514;28;20044;-70
2023/04/15 02:32:58;;;;;;;15.65;9.30;;;;;;;;;;5056849;28;20043;-70
2023/04/15 02:35:24;;;;;;;15.63;8.43;;;;;;;;;;5031370;28;20087;-70
2023/04/15 02:37:51;;;;;;;16.42;8.30;;;;;;;;;;5050402;28;20116;-70
2023/04/15 02:40:17;;;;;;;8.63;7.25;;;;;;;;;;5050265;28;20473;-70
2023/04/15 02:42:44;;;;;;;11.70;8.57;;;;;;;;;;5018034;28;20040;-70
2023/04/15 02:45:11;;;;;;;8.75;6.85;;;;;;;;;;5052169;28;20079;-70
2023/04/15 02:47:42;;;;;;;11.63;8.65;;;;;;;;;;5050409;28;20060;-69
2023/04/15 02:50:10;;;;;;;11.48;7.88;;;;;;;;;;5049801;28;20053;-69
2023/04/15 02:52:36;;;;;;;13.77;8.77;;;;;;;;;;5053010;28;20374;-70
2023/04/15 02:55:03;;;;;;;13.10;7.70;;;;;;;;;;5032373;28;20040;-70
2023/04/15 02:57:29;;;;;;;11.20;7.72;;;;;;;;;;5049315;28;20435;-71
2023/04/15 02:59:55;;;;;;;12.55;8.50;;;;;;;;;;5055468;28;20041;-70
2023/04/15 03:02:22;;;;;;;12.43;8.13;;;;;;;;;;5051516;28;20132;-70
2023/04/15 03:04:48;;;;;;;11.65;8.45;;;;;;;;;;5031989;28;20041;-70
2023/04/15 03:07:14;;;;;;;21.50;9.95;;;;;;;;;;5045368;28;20049;-69
2023/04/15 03:09:40;;;;;;;12.45;7.93;;;;;;;;;;5050760;28;20055;-70
2023/04/15 03:12:06;;;;;;;12.20;8.90;;;;;;;;;;5032704;28;20144;-70
2023/04/15 03:14:32;;;;;;;14.25;9.00;;;;;;;;;;5049192;28;20029;-70
2023/04/15 03:16:59;;;;;;;16.55;8.88;;;;;;;;;;5049354;28;20410;-70
2023/04/15 03:19:25;;;;;;;12.75;8.65;;;;;;;;;;5050794;28;20075;-71
2023/04/15 03:21:51;;;;;;;14.80;9.20;;;;;;;;;;5049722;28;20039;-70
2023/04/15 03:24:17;;;;;;;14.65;8.60;;;;;;;;;;5050437;28;20059;-70
2023/04/15 03:26:44;;;;;;;13.55;9.13;;;;;;;;;;5048458;28;20094;-69
2023/04/15 03:29:10;;;;;;;15.80;8.68;;;;;;;;;;5050870;28;20029;-69
2023/04/15 03:31:36;;;;;;;11.63;8.23;;;;;;;;;;5031210;28;20132;-70
2023/04/15 03:34:02;;;;;;;17.83;9.25;;;;;;;;;;5047871;28;20039;-70
2023/04/15 03:36:34;;;;;;;16.85;9.32;;;;;;;;;;5029888;28;20397;-70
2023/04/15 03:39:03;;;;;;;12.82;8.20;;;;;;;;;;5049336;28;20168;-69
2023/04/15 03:41:29;;;;;;;16.67;10.10;;;;;;;;;;5034466;28;20052;-69
2023/04/15 03:43:56;;;;;;;15.43;9.80;;;;;;;;;;5029655;28;20163;-69
2023/04/15 03:46:22;;;;;;;12.57;8.38;;;;;;;;;;5033860;28;20482;-70
2023/04/15 03:48:48;;;;;;;14.55;9.60;;;;;;;;;;5046937;28;20131;-70
2023/04/15 03:51:14;;;;;;;13.10;8.95;;;;;;;;;;5050692;28;20124;-70
2023/04/15 03:53:40;;;;;;;15.82;9.38;;;;;;;;;;5048432;28;20146;-70
2023/04/15 03:56:06;;;;;;;14.15;9.02;;;;;;;;;;5051582;28;20132;-70
2023/04/15 03:58:32;;;;;;;17.40;10.80;;;;;;;;;;5053823;28;20066;-69
2023/04/15 04:00:58;;;;;;;15.20;8.90;;;;;;;;;;5049041;28;20288;-70
2023/04/15 04:03:25;;;;;;;14.35;9.35;;;;;;;;;;5049031;28;20181;-71
2023/04/15 04:05:51;;;;;;;12.63;7.95;;;;;;;;;;5046980;28;20048;-72
2023/04/15 04:08:18;;;;;;;14.10;9.88;;;;;;;;;;5049622;28;20052;-71
2023/04/15 04:10:44;;;;;;;15.45;10.13;;;;;;;;;;5044897;28;20578;-69
2023/04/15 04:13:11;;;;;;;16.67;9.95;;;;;;;;;;5048480;28;20055;-69
2023/04/15 04:15:37;;;;;;;16.17;9.88;;;;;;;;;;5045071;28;20079;-70
2023/04/15 04:18:03;;;;;;;13.68;8.65;;;;;;;;;;5047034;28;20047;-69
2023/04/15 04:20:30;;;;;;;12.98;8.57;;;;;;;;;;5048598;28;20048;-72
2023/04/15 04:22:57;;;;;;;14.82;10.07;;;;;;;;;;5041015;28;20055;-70
2023/04/15 04:25:23;;;;;;;13.35;8.23;;;;;;;;;;5045903;28;20041;-72
2023/04/15 04:27:49;;;;;;;12.82;8.15;;;;;;;;;;5035618;28;20045;-69
2023/04/15 04:30:15;;;;;;;15.55;9.77;;;;;;;;;;5048835;28;20045;-70
2023/04/15 04:32:42;;;;;;;13.85;9.85;;;;;;;;;;5034986;28;20040;-70
2023/04/15 04:35:08;;;;;;;14.25;10.23;;;;;;;;;;5029688;28;20355;-70
2023/04/15 04:37:34;;;;;;;13.30;9.10;;;;;;;;;;5050197;28;20033;-70
2023/04/15 04:40:00;;;;;;;15.00;9.70;;;;;;;;;;5048113;28;20091;-70
2023/04/15 04:42:26;;;;;;;12.65;9.35;;;;;;;;;;5051577;28;20584;-70
2023/04/15 04:44:53;;;;;;;12.25;9.52;;;;;;;;;;5020079;28;20067;-70
2023/04/15 04:47:19;;;;;;;14.75;9.57;;;;;;;;;;5050109;28;20116;-70
2023/04/15 04:49:45;;;;;;;13.02;9.63;;;;;;;;;;5032212;28;20041;-70
2023/04/15 04:52:11;;;;;;;14.23;9.68;;;;;;;;;;5057523;28;20040;-70
2023/04/15 04:54:37;;;;;;;13.73;9.48;;;;;;;;;;5061101;28;20041;-70
2023/04/15 04:57:04;;;;;;;14.15;9.48;;;;;;;;;;5033449;28;20040;-70
2023/04/15 04:59:30;;;;;;;12.10;8.45;;;;;;;;;;5056410;28;20108;-69
2023/04/15 05:01:56;;;;;;;12.45;8.48;;;;;;;;;;5054065;28;20086;-69
2023/04/15 05:04:22;;;;;;;15.70;9.65;;;;;;;;;;5049472;28;20051;-70
2023/04/15 05:06:49;;;;;;;16.15;9.93;;;;;;;;;;5049071;28;20056;-72
2023/04/15 05:09:15;;;;;;;11.88;8.68;;;;;;;;;;5036880;28;20459;-71
2023/04/15 05:11:41;;;;;;;14.93;9.82;;;;;;;;;;5055090;28;20518;-69
2023/04/15 05:14:07;;;;;;;16.65;9.55;;;;;;;;;;5019472;28;20120;-70
2023/04/15 05:16:34;;;;;;;12.27;8.73;;;;;;;;;;5032611;28;20044;-69
2023/04/15 05:19:00;;;;;;;18.80;9.55;;;;;;;;;;5045923;28;20041;-70
2023/04/15 05:21:26;;;;;;;10.98;8.18;;;;;;;;;;5026810;28;20125;-70
2023/04/15 05:23:52;;;;;;;11.13;8.55;;;;;;;;;;5052400;28;20037;-70
2023/04/15 05:26:18;;;;;;;12.13;8.70;;;;;;;;;;5048875;28;20414;-69
2023/04/15 05:28:45;;;;;;;14.85;9.70;;;;;;;;;;5049983;28;20039;-69
2023/04/15 05:31:11;;;;;;;12.90;9.20;;;;;;;;;;5047985;28;20175;-69
2023/04/15 05:33:37;;;;;;;12.90;9.65;;;;;;;;;;5049692;28;20056;-70
2023/04/15 05:36:03;;;;;;;14.30;10.50;;;;;;;;;;5028624;28;20048;-70
2023/04/15 05:38:29;;;;;;;12.63;9.20;;;;;;;;;;4999108;28;20111;-70
2023/04/15 05:40:56;;;;;;;15.40;9.40;;;;;;;;;;5046337;28;20084;-70
2023/04/15 05:43:22;;;;;;;13.63;9.18;;;;;;;;;;5050752;28;20491;-70
2023/04/15 05:45:48;;;;;;;13.52;9.43;;;;;;;;;;5049515;28;20147;-70
2023/04/15 05:48:14;;;;;;;17.02;9.55;;;;;;;;;;5050230;28;20124;-70
2023/04/15 05:50:41;;;;;;;14.18;9.52;;;;;;;;;;5033220;28;20044;-70
2023/04/15 05:53:07;;;;;;;12.70;8.63;;;;;;;;;;5030531;28;20377;-70
2023/04/15 05:55:33;;;;;;;13.02;8.80;;;;;;;;;;5049722;28;20109;-70
2023/04/15 05:58:00;;;;;;;11.52;8.13;;;;;;;;;;5046924;28;20133;-69
2023/04/15 06:00:26;;;;;;;14.23;9.02;;;;;;;;;;5027913;28;20060;-71
2023/04/15 06:02:52;;;;;;;13.85;8.73;;;;;;;;;;5045689;28;20037;-70
2023/04/15 06:05:18;;;;;;;12.27;7.32;;;;;;;;;;5048467;28;20056;-71
2023/04/15 06:07:45;;;;;;;10.40;7.78;;;;;;;;;;5012447;28;20122;-71
2023/04/15 06:10:11;;;;;;;12.68;9.20;;;;;;;;;;5044240;28;20494;-70
2023/04/15 06:12:37;;;;;;;11.20;7.75;;;;;;;;;;5031829;28;20060;-70
2023/04/15 06:15:05;;;;;;;11.57;8.38;;;;;;;;;;5029587;28;20136;-70
2023/04/15 06:17:31;;;;;;;10.90;8.25;;;;;;;;;;5027722;28;20076;-70
2023/04/15 06:19:57;;;;;;;11.85;7.10;;;;;;;;;;5048367;28;20052;-70
2023/04/15 06:22:24;;;;;;;10.00;7.50;;;;;;;;;;5044998;28;20037;-70
2023/04/15 06:24:50;;;;;;;12.93;6.50;;;;;;;;;;5049087;28;20163;-70
2023/04/15 06:27:16;;;;;;;12.40;7.85;;;;;;;;;;5029432;28;20074;-70
2023/04/15 06:29:43;;;;;;;11.82;7.28;;;;;;;;;;4995692;28;20052;-71
2023/04/15 06:32:09;;;;;;;10.30;7.68;;;;;;;;;;5028553;28;20052;-70
2023/04/15 06:34:35;;;;;;;12.70;7.47;;;;;;;;;;5043334;28;20045;-70
2023/04/15 06:37:02;;;;;;;9.07;7.00;;;;;;;;;;5050552;28;20036;-70
2023/04/15 06:39:28;;;;;;;14.40;9.05;;;;;;;;;;5032391;28;20044;-71
2023/04/15 06:41:55;;;;;;;13.02;8.18;;;;;;;;;;5048424;28;20041;-70
2023/04/15 06:44:21;;;;;;;15.35;9.00;;;;;;;;;;5048048;28;20428;-70
2023/04/15 06:46:48;;;;;;;14.50;8.48;;;;;;;;;;5047462;28;20059;-70
2023/04/15 06:49:14;;;;;;;15.07;9.43;;;;;;;;;;5048972;28;20040;-70
2023/04/15 06:51:42;;;;;;;14.13;9.45;;;;;;;;;;5047051;28;20040;-70
2023/04/15 06:54:08;;;;;;;13.73;9.88;;;;;;;;;;5045653;28;20063;-70
2023/04/15 06:56:34;;;;;;;15.25;10.00;;;;;;;;;;5050193;28;20036;-70
2023/04/15 06:59:00;;;;;;;12.90;9.77;;;;;;;;;;5048916;28;20052;-70
2023/04/15 07:01:27;;;;;;;13.93;9.23;;;;;;;;;;5044221;28;20137;-70
2023/04/15 07:03:53;;;;;;;13.57;9.32;;;;;;;;;;5047942;28;20063;-72
2023/04/15 07:06:20;;;;;;;19.40;10.85;;;;;;;;;;5030818;28;20508;-70
2023/04/15 07:08:47;;;;;;;15.50;9.70;;;;;;;;;;5024169;28;20053;-70
2023/04/15 07:11:13;;;;;;;16.75;10.43;;;;;;;;;;5048430;28;20087;-70
2023/04/15 07:13:40;;;;;;;14.52;9.23;;;;;;;;;;5010905;28;20128;-70
2023/04/15 07:16:06;;;;;;;16.27;9.15;;;;;;;;;;5045504;28;20489;-71
2023/04/15 07:18:32;;;;;;;12.13;9.25;;;9.70;99.90;;;;;;5041970;28;20037;-70
2023/04/15 07:20:58;;;;;;;16.45;9.05;;;9.00;99.90;;;;;;5044853;28;20114;-71
2023/04/15 07:23:24;;;;;;;13.55;9.43;;;;;;;;;;5043485;28;20103;-71
2023/04/15 07:25:51;;;;;;;13.32;8.65;;;;;;;;;;5042908;28;20662;-71
2023/04/15 07:28:17;;;;;;;11.50;7.80;;;;;;;;;;5031336;28;20052;-70
2023/04/15 07:30:43;;;;;;;11.32;7.53;;;;;;;;;;5043531;28;20071;-70
2023/04/15 07:33:09;;;;;;;10.60;7.10;;;;;;;;;;5046629;28;20048;-70
2023/04/15 07:35:35;;;;;;;10.43;7.65;;;9.10;99.90;;;;;;5045511;28;20068;-70
2023/04/15 07:38:01;;;;;;;12.55;6.10;;;;;;;;;;5048924;28;20660;-70
2023/04/15 07:40:27;;;;;;;14.60;6.88;;;;;;;;;;5028445;28;20091;-70
2023/04/15 07:42:57;;;;;;;11.20;7.25;;;;;;;;;;5028145;28;20048;-70
2023/04/15 07:45:23;;;;;;;9.25;5.93;;;;;;;;;;5043040;28;20037;-70
2023/04/15 07:47:52;;;;;;;8.23;5.40;;;;;;;;;;5045993;28;20040;-70
2023/04/15 07:50:18;;;;;;;9.88;6.10;;;;;;;;;;5029218;28;20045;-70
2023/04/15 07:52:45;;;;;;;7.65;5.40;;;;;;;;;;5029368;28;20072;-70
2023/04/15 07:55:11;;;;;;;9.23;5.32;;;;;;;;;;5046327;28;20045;-71
2023/04/15 07:57:37;;;;;;;7.07;4.68;;;;;;;;;;5047028;28;20085;-70
2023/04/15 08:00:04;;;;;;;10.15;4.93;;;;;;;;;;5046251;28;20532;-70
2023/04/15 08:02:31;;;;;;;7.82;5.38;;;;;;;;;;5048396;28;20045;-70
2023/04/15 08:04:57;;;;;;;8.75;4.43;;;;;;;;;;5046475;28;20041;-71
2023/04/15 08:07:24;;;;;;;9.15;5.13;;;;;;;;;;5030857;28;20041;-70
2023/04/15 08:09:51;;;;;;;6.80;4.07;;;;;;;;;;5046529;28;20037;-69
2023/04/15 08:12:17;;;;;;;6.38;4.38;;;;;;;;;;5048344;28;20099;-69
2023/04/15 08:14:43;;;;;;;4.93;3.00;;;;;;;;;;5046228;28;20402;-70
2023/04/15 08:17:09;;;;;;;7.18;3.97;;;;;;;;;;5048687;28;20111;-70
2023/04/15 08:19:35;;;;;;;7.07;4.50;;;;;;;;;;5047811;28;20068;-70
2023/04/15 08:22:01;;;;;;;9.45;4.78;;;;;;;;;;5011674;28;20189;-70
2023/04/15 08:24:28;;;;;;;7.55;4.47;;;;;;;;;;5030605;28;20045;-70
2023/04/15 08:26:54;;;;;;;6.57;4.32;;;;;;;;;;5047878;28;20538;-70
2023/04/15 08:29:20;;;;;;;7.35;4.30;;;;;;;;;;5048701;28;20029;-70
2023/04/15 08:31:46;;;;;;;8.60;4.25;;;;;;;;;;5039064;28;20048;-70
2023/04/15 08:34:12;;;;;;;7.32;4.50;;;;;;;;;;5043528;28;20072;-71
2023/04/15 08:36:38;;;;;;;9.20;4.65;;;;;;;;;;5011400;28;20397;-70
2023/04/15 08:39:05;;;;;;;8.05;5.00;;;;;;;;;;5044075;28;20459;-70
2023/04/15 08:41:38;;;;;;;8.80;4.25;;;;;;;;;;5047773;28;20183;-70
2023/04/15 08:44:05;;;;;;;9.88;5.32;;;;;;;;;;5045680;28;20036;-70
2023/04/15 08:46:33;;;;;;;7.93;4.57;;;;;;;;;;5049048;28;20505;-70
2023/04/15 08:49:00;;;;;;;7.20;4.38;;;;;;;;;;5029419;28;20045;-70
2023/04/15 08:51:26;;;;;;;9.07;4.45;;;;;;;;;;5046305;28;20045;-70
2023/04/15 08:53:53;;;;;;;6.60;3.17;;;;;;;;;;5047024;28;20041;-70
2023/04/15 08:56:20;;;;;;;7.40;4.30;;;;;;;;;;5049277;28;20052;-70
2023/04/15 08:58:46;;;;;;;8.77;4.55;;;;;;;;;;5029356;28;20045;-70
2023/04/15 09:01:12;;;;;;;8.00;3.78;;;;;;;;;;5044451;28;20095;-70
2023/04/15 09:03:39;;;;;;;6.72;4.20;;;;;;;;;;5044914;28;20752;-70
2023/04/15 09:06:06;;;;;;;4.88;3.42;;;;;;;;;;5026788;28;20162;-70
2023/04/15 09:08:35;;;;;;;6.30;3.80;;;;;;;;;;5042287;28;20075;-69
2023/04/15 09:11:02;;;;;;;6.50;3.47;;;;;;;;;;5042939;28;20055;-70
2023/04/15 09:13:29;;;;;;;8.48;4.10;;;;;;;;;;5044827;28;20140;-70
2023/04/15 09:15:57;;;;;;;7.18;3.60;;;;;;;;;;5043787;28;20084;-70
2023/04/15 09:18:27;;;;;;;6.78;3.15;;;;;;;;;;5025634;28;20056;-70
2023/04/15 09:20:54;;;;;;;5.78;3.30;;;;;;;;;;5025479;28;20083;-70
2023/04/15 09:23:20;;;;;;;4.60;3.25;;;;;;;;;;5041817;28;20517;-70
2023/04/15 09:25:48;;;;;;;6.90;4.03;;;;;;;;;;5041814;28;20037;-69
2023/04/15 09:28:14;;;;;;;5.68;3.60;;;;;;;;;;5044369;28;20083;-70
2023/04/15 09:30:45;;;;;;;16.10;3.50;;;;;;;;;;5030209;28;20040;-70
2023/04/15 09:33:14;;;;;;;7.55;4.18;;;;;;;;;;5030385;28;20355;-70
2023/04/15 09:35:40;;;;;;;5.38;3.25;;;;;;;;;;5047625;28;20052;-70
2023/04/15 09:38:07;;;;;;;3.90;2.92;;;;;;;;;;5046995;28;20041;-70
2023/04/15 09:40:40;;;;;;;11.60;3.03;;;;;;;;;;5048396;28;20045;-70
2023/04/15 09:43:08;;;;;;;8.48;2.50;;;;;;;;;;5047684;28;20041;-70
2023/04/15 09:45:35;;;;;;;4.22;2.75;;;;;;;;;;5048044;28;20036;-70
2023/04/15 09:48:16;;;;;;;3.42;2.30;;;;;;;;;;5045456;28;20060;-70
2023/04/15 09:50:43;;;;;;;5.88;2.40;;;;;;;;;;5046094;28;20728;-70
2023/04/15 09:53:11;;;;;;;5.07;2.03;;;;;;;;;;5047621;28;20049;-70
2023/04/15 09:55:37;;;;;;;4.00;2.45;;;;;;;;;;5043101;28;20040;-70
2023/04/15 09:58:09;;;;;;;6.05;2.20;;;;;;;;;;5046647;28;20048;-70
2023/04/15 10:00:35;;;;;;;4.00;2.08;;;;;;;;;;5048669;28;20525;-70
2023/04/15 10:03:03;;;;;;;4.65;1.85;;;;;;;;;;5046695;28;20204;-70
2023/04/15 10:05:29;;;;;;;6.38;2.25;;;;;;;;;;5039931;28;20048;-70
2023/04/15 10:07:56;;;;;;;5.05;2.15;;;;;;;;;;5044953;28;20090;-70
2023/04/15 10:10:22;;;;;;;4.57;1.75;;;;;;;;;;5044781;28;20132;-70
2023/04/15 10:12:49;;;;;;;4.00;1.90;;;;;;;;;;5029851;28;20251;-70
2023/04/15 10:15:16;;;;;;;6.15;2.22;;;;;;;;;;5042474;28;20041;-70
2023/04/15 10:17:43;;;;;;;7.75;2.05;;;;;;;;;;5021656;28;20056;-70
2023/04/15 10:20:11;;;;;;;3.33;1.58;;;9.40;99.90;;;;;;5020423;28;20053;-70
2023/04/15 10:22:37;;;;;;;3.63;1.60;;;10.40;99.90;;;;;;5046787;28;20127;-70
2023/04/15 10:25:05;;;;;;;3.85;1.65;;;;;;;;;;5028067;28;20059;-70
2023/04/15 10:27:32;;;;;;;2.70;1.58;;;;;;;;;;5046444;28;20072;-70
2023/04/15 10:30:02;;;;;;;3.20;1.58;;;;;;;;;;5026988;28;20067;-69
2023/04/15 10:32:29;;;;;;;2.42;1.45;;;;;;;;;;5026282;28;20053;-70
2023/04/15 10:34:55;;;;;;;3.35;1.83;;;;;;;;;;5046830;28;20094;-70
2023/04/15 10:37:22;;;;;;;3.35;1.80;;;;;;;;;;5047002;28;20483;-70
2023/04/15 10:39:49;;;;;;;5.22;1.52;;;;;;;;;;5043908;28;20045;-70
2023/04/15 10:42:16;;;;;;;2.85;1.77;;;;;;;;;;5045401;28;20131;-70
2023/04/15 10:44:44;;;;;;;2.88;1.65;;;;;;;;;;5029148;28;20048;-70
2023/04/15 10:47:11;;;;;;;4.07;1.55;;;;;;;;;;5045835;28;20044;-70
2023/04/15 10:49:48;;;;;;;3.70;1.60;;;;;;;;;;5043989;28;20360;-70
2023/04/15 10:52:16;;;;;;;3.05;1.40;;;;;;;;;;5041543;28;20466;-70
2023/04/15 10:54:42;;;;;;;6.55;1.88;;;;;;;;;;5038504;28;20076;-70
2023/04/15 10:57:09;;;;;;;5.03;2.28;;;;;;;;;;5023995;28;20071;-69
2023/04/15 10:59:36;;;;;;;3.03;1.80;;;;;;;;;;5042536;28;20064;-70
2023/04/15 11:02:06;;;;;;;3.70;1.90;;;;;;;;;;5041871;28;20546;-70
2023/04/15 11:04:51;;;;;;;4.25;2.20;;;;;;;;;;5026692;28;20045;-70
2023/04/15 11:07:52;;;;;;;5.57;1.90;;;;;;;;;;5040436;28;20041;-70
2023/04/15 11:10:25;;;;;;;5.57;2.05;;;;;;;;;;4943948;28;20140;-69
2023/04/15 11:12:56;;;;;;;2.80;1.58;;;;;;;;;;5022926;28;20049;-70
2023/04/15 11:15:31;;;;;;;3.00;1.77;;;;;;;;;;5022662;28;20120;-69
2023/04/15 11:17:58;;;;;;;3.10;1.40;;;;;;;;;;5046662;28;20049;-69
2023/04/15 11:20:25;;;;;;;3.67;1.75;;;;;;;;;;5045475;28;20060;-70
2023/04/15 11:22:52;;;;;;;5.20;1.85;;;;;;;;;;5045912;28;20506;-70
2023/04/15 11:25:37;;;;;;;3.60;1.73;;;;;;;;;;5046744;28;20487;-70
2023/04/15 11:28:03;;;;;;;4.75;2.53;;;;;;;;;;5046757;28;20586;-70
2023/04/15 11:30:32;;;;;;;5.78;1.75;;;;;;;;;;5047748;28;20068;-70
2023/04/15 11:33:02;;;;;;;3.80;1.77;;;;;;;;;;5045619;28;20048;-70
2023/04/15 11:35:29;;;;;;;4.10;2.58;;;;;;;;;;5047522;28;20041;-70
2023/04/15 11:37:55;;;;;;;3.70;1.98;;;;;;;;;;5028511;28;20090;-70
2023/04/15 11:40:26;;;;;;;5.03;1.80;;;;;;;;;;5048306;28;20071;-70
2023/04/15 11:43:04;;;;;;;3.85;2.80;;;;;;;;;;5046400;28;20064;-70
2023/04/15 11:45:30;;;;;;;6.38;2.90;;;;;;;;;;5044977;28;20041;-70
2023/04/15 11:48:05;;;;;;;7.68;2.45;;;;;;;;;;5050628;28;20124;-70
2023/04/15 11:50:31;;;;;;;9.55;2.65;;;;;;;;;;5025813;28;20110;-70
2023/04/15 11:52:58;;;;;;;8.38;2.83;;;;;;;;;;5046665;28;20033;-72
2023/04/15 11:55:25;;;;;;;6.28;2.47;;;;;;;;;;5042232;28;20107;-73
2023/04/15 11:58:10;;;;;;;13.18;3.33;;;;;;;;;;5028835;28;20037;-71
2023/04/15 12:00:37;;;;;;;7.20;2.50;;;;;;;;;;5043362;28;20151;-73
2023/04/15 12:03:13;;;;;;;5.78;3.38;;;;;;;;;;5045866;28;20112;-72
2023/04/15 12:05:57;;;;;;;5.97;2.17;;;;;;;;;;5042858;28;20044;-73
2023/04/15 12:08:24;;;;;;;7.63;2.28;;;;;;;;;;5044430;28;20286;-72
2023/04/15 12:10:50;;;;;;;6.60;1.90;;;;;;;;;;5047258;28;20060;-71
2023/04/15 12:13:16;;;;;;;5.70;2.08;;;;;;;;;;5048825;28;20052;-72
2023/04/15 12:15:43;;;;;;;4.40;2.20;;;;;;;;;;5039312;28;20044;-72
2023/04/15 12:18:16;;;;;;;6.53;2.88;;;;;;;;;;5044172;28;20048;-70
2023/04/15 12:20:46;;;;;;;6.20;2.03;;;;;;;;;;5046533;28;20033;-67
2023/04/15 12:23:12;;;;;;;6.80;2.00;;;;;;;;;;5052803;28;20037;-67
2023/04/15 12:25:38;;;;;;;6.13;3.13;;;;;;;;;;5022344;28;20040;-67
2023/04/15 12:28:11;;;;;;;12.25;2.85;;;;;;;;;;5048381;28;20076;-67
2023/04/15 12:30:37;;;;;;;;;;;;;;;;;;5030786;28;20433;-67
2023/04/15 12:33:03;;;;;;;6.80;2.10;;;;;;;;;;5048115;28;19916;-67
2023/04/15 12:35:29;;;;;;;9.20;2.25;;;;;;;;;;5044497;28;20045;-68
2023/04/15 12:37:56;;;;;;;7.30;2.35;;;;;;;;;;5048537;28;20040;-67
2023/04/15 12:40:22;;;;;;;6.65;1.75;;;;;;;;;;5046851;28;20060;-67
2023/04/15 12:42:48;;;;;;;5.20;1.95;;;;;;;;;;5028284;28;20044;-67
2023/04/15 12:45:14;;;;;;;7.18;2.70;;;;;;;;;;5047227;28;20441;-67
2023/04/15 12:47:40;;;;;;;7.70;1.98;;;;;;;;;;5027334;28;20448;-67
2023/04/15 12:50:06;;;;;;;5.63;2.00;;;;;;;;;;5045579;28;20056;-67
2023/04/15 12:52:33;;;;;;;8.02;2.58;;;;;;;;;;5045673;28;20060;-67
2023/04/15 12:54:59;;;;;;;6.60;1.73;;;;;;;;;;5039871;28;20041;-67
2023/04/15 12:57:25;;;;;;;5.00;1.50;;;;;;;;;;5038286;28;20046;-67
2023/04/15 12:59:51;;;;;;;5.05;1.50;;;10.40;99.90;;;;;;5046269;28;20041;-67
2023/04/15 13:02:19;;;;;;;5.13;1.48;;;;;;;;;;5042880;28;20037;-66
2023/04/15 13:04:46;;;;;;;8.07;2.13;;;;;;;;;;5026573;28;20044;-67
2023/04/15 13:07:14;;;;;;;5.07;2.08;;;;;;;;;;5046111;28;20040;-68
2023/04/15 13:09:40;;;;;;;9.40;2.92;;;;;;;;;;5048877;28;20048;-67
2023/04/15 13:12:06;;;;;;;7.35;2.85;;;;;;;;;;5052253;28;20109;-67
2023/04/15 13:14:32;;;;;;;9.98;2.35;;;;;;;;;;5046416;28;20193;-68
2023/04/15 13:16:59;;;;;;;11.45;2.17;;;;;;;;;;5030270;28;20044;-66
2023/04/15 13:19:25;;;;;;;5.30;2.35;;;;;;;;;;5048482;28;20052;-68
2023/04/15 13:21:51;;;;;;;6.93;2.80;;;;;;;;;;5049351;28;20922;-67
2023/04/15 13:24:18;;;;;;;10.18;2.10;;;;;;;;;;5049380;28;20410;-67
2023/04/15 13:26:44;;;;;;;7.03;1.98;;;;;;;;;;5030950;28;20101;-67
2023/04/15 13:29:11;;;;;;;5.47;1.63;;;;;;;;;;5047982;28;20430;-68
2023/04/15 13:31:37;;;;;;;5.60;1.83;;;;;;;;;;5031264;28;20063;-67
2023/04/15 13:34:03;;;;;;;5.15;2.10;;;;;;;;;;5054598;28;20044;-66
2023/04/15 13:36:30;;;;;;;4.65;2.03;;;;;;;;;;5047871;28;20403;-66
2023/04/15 13:38:56;;;;;;;6.35;2.45;;;;;;;;;;5050152;28;20551;-66
2023/04/15 13:41:22;;;;;;;7.45;2.20;;;;;;;;;;5050379;28;20063;-67
2023/04/15 13:43:49;;;;;;;9.63;2.67;;;;;;;;;;5048235;28;20041;-67
2023/04/15 13:46:15;;;;;;;5.57;2.75;;;;;;;;;;5044858;28;20033;-66
2023/04/15 13:48:41;;;;;;;5.15;2.55;;;;;;;;;;5052679;28;20091;-67
2023/04/15 13:51:07;;;;;;;8.32;2.80;;;;;;;;;;5050701;28;20152;-67
2023/04/15 13:53:34;;;;;;;6.70;2.63;;;;;;;;;;5051133;28;20063;-67
2023/04/15 14:07:17;;;;;;;6.53;2.30;;;;;;;;;;5031271;28;20115;-67
2023/04/15 14:19:39;;;;;;;6.25;1.70;;;;;;;;;;5037510;28;20057;-67
2023/04/15 14:22:06;;;;;;;3.88;2.53;;;;;;;;;;5043579;28;20052;-67
2023/04/15 14:24:32;;;;;;;10.32;2.22;;;;;;;;;;5046613;28;20060;-67
2023/04/15 14:26:58;;;;;;;7.25;2.30;;;;;;;;;;5052171;28;20398;-66
2023/04/15 14:29:25;;;;;;;5.45;2.25;;;;;;;;;;5049608;28;20051;-67
2023/04/15 14:31:51;;;;;;;6.38;2.10;;;;;;;;;;5043486;28;20052;-67
2023/04/15 14:34:17;;;;;;;4.30;1.85;;;;;;;;;;5046516;28;20088;-67
2023/04/15 14:36:44;;;;;;;5.80;2.90;;;;;;;;;;5045784;28;20048;-67
2023/04/15 14:39:11;;;;;;;6.13;2.42;;;;;;;;;;5044762;28;20520;-67
2023/04/15 14:41:37;;;;;;;4.95;1.52;;;;;;;;;;5020857;28;20225;-67
2023/04/15 14:44:03;;;;;;;3.63;1.55;;;;;;;;;;5042965;28;20397;-68
2023/04/15 14:46:29;;;;;;;7.10;1.92;;;;;;;;;;5052500;28;20266;-67
2023/04/15 14:48:56;;;;;;;6.05;2.03;;;;;;;;;;5042741;28;20044;-67
2023/04/15 14:51:23;;;;;;;8.02;2.58;;;;;;;;;;5040268;28;20049;-67
2023/04/15 14:53:49;;;;;;;5.82;2.53;;;;;;;;;;5053140;28;20040;-67